Time;durP1;ratioP1;P1;durP2;ratioP2;P2;SDS_P1;SDS_P2;PMS_P1;PMS_P2;Temp;Humidity;BMP_temperature;BMP_pressure;BME280_temperature;BME280_humidity;BME280_pressure;Samples;Min_cycle;Max_cycle;Signal;HPM_P1;HPM_P2
2023/10/06 00:01:07;;;;;;;18.60;16.67;;;15.70;99.90;;;;;;5039162;28;20502;-79
2023/10/06 00:03:36;;;;;;;22.17;19.77;;;15.70;99.90;;;;;;5033419;28;20555;-88
2023/10/06 00:06:04;;;;;;;29.20;25.90;;;15.70;99.90;;;;;;5053127;28;20467;-88
2023/10/06 00:08:35;;;;;;;26.97;21.73;;;15.70;99.90;;;;;;5052878;28;20463;-89
2023/10/06 00:11:11;;;;;;;17.90;15.47;;;15.70;99.90;;;;;;5053753;28;20459;-88
2023/10/06 00:13:51;;;;;;;17.97;15.00;;;15.70;99.90;;;;;;5034714;28;20455;-78
2023/10/06 00:16:19;;;;;;;13.10;11.80;;;15.70;99.90;;;;;;5032630;28;20962;-77
2023/10/06 00:18:47;;;;;;;25.00;20.63;;;15.70;99.90;;;;;;5031993;28;20476;-78
2023/10/06 00:21:15;;;;;;;17.70;15.93;;;15.70;99.90;;;;;;5032963;28;20468;-87
2023/10/06 00:23:44;;;;;;;22.53;19.63;;;15.70;99.90;;;;;;5034127;28;20476;-88
2023/10/06 00:26:15;;;;;;;19.37;15.17;;;15.70;99.90;;;;;;5032326;28;20799;-80
2023/10/06 00:28:44;;;;;;;14.63;12.80;;;15.70;99.90;;;;;;5033661;28;20471;-88
2023/10/06 00:31:12;;;;;;;17.83;15.83;;;15.70;99.90;;;;;;5033521;28;20809;-79
2023/10/06 00:33:42;;;;;;;13.33;12.03;;;15.70;99.90;;;;;;5034306;28;20472;-88
2023/10/06 00:36:17;;;;;;;13.50;12.07;;;15.70;99.90;;;;;;5033761;28;20529;-88
2023/10/06 00:38:47;;;;;;;17.00;15.00;;;15.70;99.90;;;;;;5033841;28;20460;-88
2023/10/06 00:41:17;;;;;;;15.57;13.97;;;15.70;99.90;;;;;;5033761;28;20533;-88
2023/10/06 00:43:45;;;;;;;12.20;11.00;;;15.70;99.90;;;;;;5034094;28;20522;-89
2023/10/06 00:46:13;;;;;;;15.07;13.63;;;15.70;99.90;;;;;;5033120;28;20563;-89
2023/10/06 00:48:42;;;;;;;16.17;14.13;;;15.70;99.90;;;;;;5034236;28;20465;-89
2023/10/06 00:51:15;;;;;;;18.83;14.40;;;15.80;99.90;;;;;;5026257;28;20464;-89
2023/10/06 00:53:44;;;;;;;13.93;12.53;;;15.80;99.90;;;;;;5034084;28;20468;-89
2023/10/06 00:56:15;;;;;;;13.00;11.70;;;15.80;99.90;;;;;;5033512;28;20472;-89
2023/10/06 00:58:42;;;;;;;13.17;9.70;;;15.80;99.90;;;;;;5039202;28;20468;-89
2023/10/06 01:01:12;;;;;;;12.73;11.43;;;15.80;99.90;;;;;;5053386;28;20868;-88
2023/10/06 01:03:41;;;;;;;13.00;11.70;;;15.80;99.90;;;;;;5054184;28;20463;-90
2023/10/06 01:06:14;;;;;;;11.63;10.50;;;15.80;99.90;;;;;;5054359;28;20475;-80
2023/10/06 01:08:45;;;;;;;14.93;13.33;;;15.80;99.90;;;;;;5053441;28;20451;-89
2023/10/06 01:11:17;;;;;;;12.30;11.10;;;15.80;99.90;;;;;;5056409;28;20511;-79
2023/10/06 01:13:55;;;;;;;17.30;14.83;;;15.90;99.90;;;;;;5052921;28;20486;-79
2023/10/06 01:16:34;;;;;;;12.57;11.30;;;15.90;99.90;;;;;;5052788;28;20486;-79
2023/10/06 01:19:14;;;;;;;13.17;11.83;;;15.90;99.90;;;;;;5054359;28;20469;-80
2023/10/06 01:21:46;;;;;;;19.30;16.33;;;15.90;99.90;;;;;;5053183;28;20475;-79
2023/10/06 01:24:24;;;;;;;13.20;11.57;;;15.90;99.90;;;;;;5054031;28;20467;-79
2023/10/06 01:26:52;;;;;;;15.00;13.50;;;15.90;99.90;;;;;;5053219;28;21223;-79
2023/10/06 01:29:22;;;;;;;15.20;13.60;;;15.90;99.90;;;;;;5053723;28;20490;-88
2023/10/06 01:31:51;;;;;;;11.77;10.57;;;16.00;99.90;;;;;;5053641;28;20455;-89
2023/10/06 01:34:18;;;;;;;12.43;11.23;;;16.00;99.90;;;;;;5054292;28;20547;-89
2023/10/06 01:36:51;;;;;;;17.70;15.13;;;16.00;99.90;;;;;;5052679;28;20466;-80
2023/10/06 01:39:22;;;;;;;14.67;13.20;;;16.00;99.90;;;;;;5053265;28;20475;-89
2023/10/06 01:41:50;;;;;;;25.80;22.23;;;16.00;99.90;;;;;;5055334;28;20924;-88
2023/10/06 01:44:18;;;;;;;16.00;14.40;;;16.00;99.90;;;;;;5056858;28;20463;-79
2023/10/06 01:46:53;;;;;;;21.93;18.30;;;16.00;99.90;;;;;;5052980;28;20481;-79
2023/10/06 01:49:21;;;;;;;13.80;12.27;;;16.10;99.90;;;;;;5052518;28;20463;-79
2023/10/06 01:51:50;;;;;;;13.00;11.70;;;16.10;99.90;;;;;;5053047;28;20471;-80
2023/10/06 01:54:18;;;;;;;14.13;12.00;;;16.10;99.90;;;;;;5054209;28;20493;-80
2023/10/06 01:56:50;;;;;;;13.37;12.00;;;16.10;99.90;;;;;;5051192;28;20472;-79
2023/10/06 01:59:17;;;;;;;13.90;12.60;;;16.10;99.90;;;;;;5041352;28;20476;-88
2023/10/06 02:01:45;;;;;;;15.27;13.63;;;16.20;99.90;;;;;;5051127;28;20460;-88
2023/10/06 02:04:14;;;;;;;25.30;20.37;;;16.20;99.90;;;;;;5050110;28;20467;-78
2023/10/06 02:06:43;;;;;;;18.50;16.53;;;16.20;99.90;;;;;;5054883;28;20562;-79
2023/10/06 02:09:15;;;;;;;18.47;16.67;;;16.20;99.90;;;;;;5056071;28;20474;-79
2023/10/06 02:11:42;;;;;;;16.87;15.07;;;16.20;99.90;;;;;;5062878;28;20486;-78
2023/10/06 02:14:12;;;;;;;13.17;11.87;;;16.20;99.90;;;;;;5065407;28;20459;-87
2023/10/06 02:16:39;;;;;;;16.57;14.27;;;16.20;99.90;;;;;;5064422;28;20467;-79
2023/10/06 02:19:08;;;;;;;15.37;13.80;;;16.20;99.90;;;;;;5069663;28;20464;-78
2023/10/06 02:21:36;;;;;;;14.47;12.50;;;16.20;99.90;;;;;;5059692;28;20550;-87
2023/10/06 02:24:08;;;;;;;14.70;13.20;;;16.20;99.90;;;;;;5053338;28;20698;-88
2023/10/06 02:26:37;;;;;;;12.93;11.83;;;16.20;99.90;;;;;;5053789;28;20475;-86
2023/10/06 02:29:07;;;;;;;14.47;12.70;;;16.20;99.90;;;;;;5057041;28;20467;-87
2023/10/06 02:31:36;;;;;;;13.33;12.10;;;16.20;99.90;;;;;;5054155;28;20531;-79
2023/10/06 02:34:12;;;;;;;18.07;13.77;;;16.20;99.90;;;;;;5053517;28;20467;-88
2023/10/06 02:36:41;;;;;;;12.63;11.20;;;16.20;99.90;;;;;;5053279;28;20528;-78
2023/10/06 02:39:10;;;;;;;26.37;22.80;;;16.30;99.90;;;;;;5059355;28;20550;-87
2023/10/06 02:41:40;;;;;;;23.60;20.90;;;16.20;99.90;;;;;;5054723;28;20475;-88
2023/10/06 02:44:15;;;;;;;16.53;13.30;;;16.20;99.90;;;;;;5054030;28;20470;-87
2023/10/06 02:46:44;;;;;;;15.40;11.33;;;16.30;99.90;;;;;;5052287;28;20505;-79
2023/10/06 02:49:12;;;;;;;15.90;13.57;;;16.30;99.90;;;;;;5052675;28;20863;-87
2023/10/06 02:51:48;;;;;;;12.20;11.03;;;16.30;99.90;;;;;;5052973;28;20471;-87
2023/10/06 02:54:27;;;;;;;14.67;13.20;;;16.30;99.90;;;;;;5055124;28;20471;-87
2023/10/06 02:56:55;;;;;;;21.43;18.33;;;16.30;99.90;;;;;;5051676;28;20475;-78
2023/10/06 02:59:34;;;;;;;15.80;14.20;;;16.30;99.90;;;;;;5042528;28;20558;-79
2023/10/06 03:02:06;;;;;;;17.07;15.27;;;16.30;99.90;;;;;;5031426;28;20460;-79
2023/10/06 03:04:36;;;;;;;15.53;13.57;;;16.30;99.90;;;;;;5032337;28;20579;-87
2023/10/06 03:07:11;;;;;;;13.50;12.20;;;16.30;99.90;;;;;;5034450;28;20543;-86
2023/10/06 03:09:44;;;;;;;12.00;10.90;;;16.30;99.90;;;;;;5033254;28;20494;-84
2023/10/06 03:12:15;;;;;;;13.77;11.40;;;16.30;99.90;;;;;;5035722;28;20533;-78
2023/10/06 03:14:42;;;;;;;16.57;14.87;;;16.30;99.90;;;;;;5035696;28;20472;-87
2023/10/06 03:17:13;;;;;;;16.20;12.20;;;16.30;99.90;;;;;;5036109;28;20834;-86
2023/10/06 03:19:44;;;;;;;14.03;12.53;;;16.30;99.90;;;;;;5032216;28;20472;-79
2023/10/06 03:22:12;;;;;;;12.80;11.70;;;16.30;99.90;;;;;;5036100;28;20547;-86
2023/10/06 03:24:53;;;;;;;15.80;13.93;;;16.40;99.90;;;;;;5035908;28;20826;-86
2023/10/06 03:27:23;;;;;;;15.37;13.83;;;16.30;99.90;;;;;;5035795;28;20797;-86
2023/10/06 03:29:54;;;;;;;16.40;14.80;;;16.40;99.90;;;;;;5035223;28;20568;-86
2023/10/06 03:32:32;;;;;;;14.00;12.60;;;16.30;99.90;;;;;;5036063;28;20977;-78
2023/10/06 03:35:06;;;;;;;17.00;15.20;;;16.40;99.90;;;;;;5034656;28;20460;-86
2023/10/06 03:37:44;;;;;;;21.70;18.90;;;16.40;99.90;;;;;;5035464;28;20467;-78
2023/10/06 03:40:21;;;;;;;19.57;15.23;;;16.40;99.90;;;;;;5036032;28;21002;-86
2023/10/06 03:42:48;;;;;;;15.13;13.70;;;16.30;99.90;;;;;;5035254;28;20547;-86
2023/10/06 03:45:26;;;;;;;18.43;16.47;;;16.40;99.90;;;;;;5035416;28;20961;-78
2023/10/06 03:48:19;;;;;;;20.30;18.20;;;16.40;99.90;;;;;;5035396;28;20862;-85
2023/10/06 03:50:46;;;;;;;15.60;13.97;;;16.40;99.90;;;;;;5035061;28;20472;-86
2023/10/06 03:53:14;;;;;;;16.47;14.60;;;16.40;99.90;;;;;;5035486;28;20525;-87
2023/10/06 03:55:43;;;;;;;16.20;14.07;;;16.40;99.90;;;;;;5034528;28;20468;-78
2023/10/06 03:58:16;;;;;;;15.40;13.87;;;16.40;99.90;;;;;;5035177;28;20841;-78
2023/10/06 04:00:47;;;;;;;18.23;16.10;;;16.50;99.90;;;;;;5034657;28;20482;-87
2023/10/06 04:03:17;;;;;;;19.43;15.07;;;16.50;99.90;;;;;;5035670;28;20468;-86
2023/10/06 04:05:45;;;;;;;20.83;18.73;;;16.50;99.90;;;;;;5034862;28;20477;-86
2023/10/06 04:08:15;;;;;;;17.87;16.17;;;16.50;99.90;;;;;;5034936;28;20880;-86
2023/10/06 04:10:43;;;;;;;17.73;15.83;;;16.50;99.90;;;;;;5033758;28;20476;-79
2023/10/06 04:13:10;;;;;;;18.90;16.23;;;16.50;99.90;;;;;;5034814;28;20476;-78
2023/10/06 04:15:38;;;;;;;15.30;13.80;;;16.50;99.90;;;;;;5033944;28;20483;-86
2023/10/06 04:18:11;;;;;;;16.00;12.97;;;16.50;99.90;;;;;;5034843;28;20981;-78
2023/10/06 04:20:41;;;;;;;16.37;14.77;;;16.50;99.90;;;;;;5034225;28;20464;-86
2023/10/06 04:23:08;;;;;;;19.10;17.17;;;16.50;99.90;;;;;;5034718;28;20465;-78
2023/10/06 04:25:37;;;;;;;17.20;15.40;;;16.50;99.90;;;;;;5033719;28;20476;-86
2023/10/06 04:28:08;;;;;;;18.50;16.67;;;16.50;99.90;;;;;;5035124;28;20465;-78
2023/10/06 04:30:35;;;;;;;17.57;15.77;;;16.50;99.90;;;;;;5034574;28;20547;-78
2023/10/06 04:33:03;;;;;;;16.43;14.73;;;16.50;99.90;;;;;;5040237;28;20459;-87
2023/10/06 04:35:32;;;;;;;16.07;14.50;;;16.50;99.90;;;;;;5049563;28;20464;-86
2023/10/06 04:38:01;;;;;;;17.47;15.20;;;16.50;99.90;;;;;;5057258;28;20519;-86
2023/10/06 04:40:29;;;;;;;19.17;17.40;;;16.40;99.90;;;;;;5048495;28;20475;-87
2023/10/06 04:42:56;;;;;;;19.53;17.50;;;16.50;99.90;;;;;;5036591;28;20496;-79
2023/10/06 04:45:23;;;;;;;18.77;16.97;;;16.50;99.90;;;;;;5034208;28;20529;-79
2023/10/06 04:47:50;;;;;;;18.10;16.27;;;16.50;99.90;;;;;;5033411;28;20468;-79
2023/10/06 04:50:17;;;;;;;16.33;14.83;;;16.40;99.90;;;;;;5034186;28;20530;-79
2023/10/06 04:52:46;;;;;;;16.47;14.77;;;16.40;99.90;;;;;;5033743;28;20530;-79
2023/10/06 04:55:31;;;;;;;20.00;18.10;;;16.40;99.90;;;;;;5033765;28;20487;-79
2023/10/06 04:57:58;;;;;;;20.47;18.47;;;16.30;99.90;;;;;;5033148;28;20813;-80
2023/10/06 05:00:27;;;;;;;19.40;17.30;;;16.30;99.90;;;;;;5034047;28;20460;-87
2023/10/06 05:02:54;;;;;;;19.67;17.77;;;16.30;99.90;;;;;;5033220;28;20468;-79
2023/10/06 05:05:21;;;;;;;27.73;23.07;;;16.30;99.90;;;;;;5033011;28;20813;-80
2023/10/06 05:07:49;;;;;;;27.17;24.17;;;16.20;99.90;;;;;;5033280;28;20886;-79
2023/10/06 05:10:25;;;;;;;26.43;19.07;;;16.20;99.90;;;;;;5033244;28;20542;-80
2023/10/06 05:12:56;;;;;;;23.53;21.17;;;16.20;99.90;;;;;;5033232;28;21107;-80
2023/10/06 05:15:50;;;;;;;23.73;21.33;;;16.20;99.90;;;;;;5033359;28;20487;-80
2023/10/06 05:18:16;;;;;;;24.10;19.83;;;16.20;99.90;;;;;;5033184;28;20802;-79
2023/10/06 05:20:43;;;;;;;25.27;22.77;;;16.10;99.90;;;;;;5033544;28;20533;-80
2023/10/06 05:23:14;;;;;;;25.90;23.30;;;16.10;99.90;;;;;;5032899;28;20479;-79
2023/10/06 05:25:44;;;;;;;23.03;20.83;;;16.10;99.90;;;;;;5033093;28;20814;-79
2023/10/06 05:28:11;;;;;;;19.60;17.50;;;16.10;99.90;;;;;;5032922;28;20978;-79
2023/10/06 05:30:42;;;;;;;22.33;19.67;;;16.10;99.90;;;;;;5033833;28;20468;-87
2023/10/06 05:33:10;;;;;;;19.43;17.40;;;16.10;99.90;;;;;;5032598;28;20538;-87
2023/10/06 05:35:52;;;;;;;24.13;19.03;;;16.10;99.90;;;;;;5032674;28;20476;-78
2023/10/06 05:38:19;;;;;;;24.70;22.20;;;16.00;99.90;;;;;;5032729;28;20801;-78
2023/10/06 05:40:49;;;;;;;30.27;20.67;;;16.00;99.90;;;;;;5033095;28;20468;-78
2023/10/06 05:43:17;;;;;;;19.90;17.73;;;16.00;99.90;;;;;;5033073;28;20526;-79
2023/10/06 05:45:55;;;;;;;26.07;22.70;;;16.00;99.90;;;;;;5039329;28;20468;-87
2023/10/06 05:48:22;;;;;;;25.40;19.70;;;16.00;99.90;;;;;;5032960;28;20460;-78
2023/10/06 05:51:04;;;;;;;22.13;20.00;;;16.00;99.90;;;;;;5033608;28;20480;-79
2023/10/06 05:53:38;;;;;;;21.63;19.07;;;15.90;99.90;;;;;;5032730;28;20850;-78
2023/10/06 05:56:07;;;;;;;19.87;18.07;;;15.90;99.90;;;;;;5032796;28;20503;-78
2023/10/06 05:58:38;;;;;;;23.70;21.20;;;15.90;99.90;;;;;;5036121;28;20468;-86
2023/10/06 06:01:18;;;;;;;25.70;22.00;;;15.90;99.90;;;;;;5034281;28;20476;-78
2023/10/06 06:03:46;;;;;;;21.80;19.67;;;16.00;99.90;;;;;;5037966;28;20455;-88
2023/10/06 06:06:22;;;;;;;21.47;19.00;;;16.00;99.90;;;;;;5034202;28;20472;-87
2023/10/06 06:08:51;;;;;;;21.87;19.67;;;16.00;99.90;;;;;;5036479;28;20478;-78
2023/10/06 06:11:20;;;;;;;25.63;22.93;;;16.00;99.90;;;;;;5032834;28;20495;-78
2023/10/06 06:13:48;;;;;;;20.50;18.47;;;16.00;99.90;;;;;;5039636;28;20456;-79
2023/10/06 06:16:17;;;;;;;20.83;18.80;;;16.00;99.90;;;;;;5033282;28;20606;-86
2023/10/06 06:18:47;;;;;;;16.97;15.23;;;16.00;99.90;;;;;;5034745;28;20472;-87
2023/10/06 06:21:18;;;;;;;19.53;17.37;;;16.00;99.90;;;;;;5032096;28;20545;-80
2023/10/06 06:23:46;;;;;;;19.97;17.87;;;16.00;99.90;;;;;;5031976;28;20472;-78
2023/10/06 06:26:18;;;;;;;20.93;17.60;;;16.10;99.90;;;;;;5032301;28;20475;-78
2023/10/06 06:28:46;;;;;;;22.17;16.77;;;16.10;99.90;;;;;;5032985;28;20480;-87
2023/10/06 06:31:18;;;;;;;21.83;17.83;;;16.10;99.90;;;;;;5031533;28;20476;-78
2023/10/06 06:33:47;;;;;;;22.20;19.60;;;16.20;99.90;;;;;;5026916;28;20847;-78
2023/10/06 06:36:23;;;;;;;19.50;17.07;;;16.20;99.90;;;;;;5032283;28;20499;-79
2023/10/06 06:38:51;;;;;;;17.93;16.20;;;16.20;99.90;;;;;;5030972;28;20479;-78
2023/10/06 06:41:19;;;;;;;19.33;15.53;;;16.20;99.90;;;;;;5031996;28;20498;-78
2023/10/06 06:43:47;;;;;;;18.73;16.63;;;16.30;99.90;;;;;;5034122;28;20486;-86
2023/10/06 06:46:38;;;;;;;18.40;15.70;;;16.30;99.90;;;;;;5036841;28;20476;-79
2023/10/06 06:49:06;;;;;;;18.33;16.50;;;16.30;99.90;;;;;;5007887;28;20982;-78
2023/10/06 06:51:33;;;;;;;16.27;14.67;;;16.30;99.90;;;;;;5040443;28;20524;-86
2023/10/06 06:54:00;;;;;;;16.50;15.00;;;16.40;99.90;;;;;;5040804;28;20460;-87
2023/10/06 06:56:28;;;;;;;20.83;14.17;;;16.30;99.90;;;;;;5043612;28;20475;-86
2023/10/06 06:59:00;;;;;;;19.70;15.80;;;16.30;99.90;;;;;;5041968;28;20483;-86
2023/10/06 07:01:33;;;;;;;17.60;15.37;;;16.40;99.90;;;;;;5042445;28;20472;-78
2023/10/06 07:04:03;;;;;;;14.70;12.97;;;16.40;99.90;;;;;;5042289;28;20521;-78
2023/10/06 07:06:30;;;;;;;14.87;13.57;;;16.40;99.90;;;;;;5037238;28;20529;-78
2023/10/06 07:08:58;;;;;;;15.40;13.77;;;16.50;99.90;;;;;;5036203;28;20507;-78
2023/10/06 07:11:34;;;;;;;16.07;14.40;;;16.60;99.90;;;;;;5037099;28;20460;-79
2023/10/06 07:14:02;;;;;;;15.67;14.20;;;16.60;99.90;;;;;;5035538;28;20474;-78
2023/10/06 07:16:29;;;;;;;16.83;15.13;;;16.60;99.90;;;;;;5039722;28;20464;-86
2023/10/06 07:18:56;;;;;;;14.13;12.70;;;16.60;99.90;;;;;;5050253;28;20562;-87
2023/10/06 07:21:23;;;;;;;13.77;12.33;;;16.70;99.90;;;;;;5041927;28;20464;-88
2023/10/06 07:23:52;;;;;;;18.53;14.90;;;16.70;99.90;;;;;;5042647;28;20471;-88
2023/10/06 07:26:19;;;;;;;14.80;13.20;;;16.70;99.90;;;;;;5038410;28;21037;-80
2023/10/06 07:29:05;;;;;;;16.30;14.63;;;16.70;99.90;;;;;;5038722;28;20957;-86
2023/10/06 07:31:34;;;;;;;19.37;14.87;;;16.70;99.90;;;;;;5032983;28;20495;-79
2023/10/06 07:34:05;;;;;;;15.37;13.87;;;16.70;99.90;;;;;;5038101;28;20475;-87
2023/10/06 07:36:35;;;;;;;17.43;15.53;;;16.70;99.90;;;;;;5037507;28;20470;-87
2023/10/06 07:39:08;;;;;;;18.80;17.00;;;16.80;99.90;;;;;;5040474;28;20480;-87
2023/10/06 07:41:36;;;;;;;17.60;15.90;;;16.80;99.90;;;;;;5029665;28;20534;-87
2023/10/06 07:44:07;;;;;;;18.63;16.20;;;16.70;99.90;;;;;;5037322;28;21005;-86
2023/10/06 07:46:38;;;;;;;20.43;16.40;;;16.70;99.90;;;;;;5030848;28;20618;-87
2023/10/06 07:49:05;;;;;;;17.47;15.60;;;16.70;99.90;;;;;;5027959;28;20480;-87
2023/10/06 07:51:33;;;;;;;14.93;12.70;;;16.70;99.90;;;;;;5039251;28;21003;-86
2023/10/06 07:54:00;;;;;;;14.53;13.20;;;16.80;99.90;;;;;;5037193;28;20468;-79
2023/10/06 07:56:30;;;;;;;17.87;12.03;;;16.90;99.90;;;;;;5036580;28;20500;-78
2023/10/06 07:58:58;;;;;;;21.40;13.43;;;16.90;99.90;;;;;;5035546;28;20543;-79
2023/10/06 08:01:27;;;;;;;14.70;12.40;;;16.90;99.90;;;;;;5034270;28;20988;-88
2023/10/06 08:03:54;;;;;;;13.97;12.63;;;16.90;99.90;;;;;;5035701;28;20900;-87
2023/10/06 08:06:24;;;;;;;14.40;11.40;;;17.00;99.90;;;;;;5035437;28;20468;-78
2023/10/06 08:08:51;;;;;;;15.57;11.70;;;17.00;99.90;;;;;;5034144;28;20470;-87
2023/10/06 08:11:18;;;;;;;12.53;11.13;;;17.00;99.90;;;;;;5035566;28;20540;-87
2023/10/06 08:13:45;;;;;;;14.00;12.50;;;17.10;99.90;;;;;;5035752;28;20472;-87
2023/10/06 08:16:13;;;;;;;11.63;10.60;;;17.10;99.90;;;;;;5034241;28;20468;-79
2023/10/06 08:18:42;;;;;;;14.20;11.30;;;17.20;99.90;;;;;;5034065;28;20468;-79
2023/10/06 08:21:11;;;;;;;12.53;11.23;;;17.20;99.90;;;;;;5034236;28;20550;-78
2023/10/06 08:23:38;;;;;;;11.57;10.50;;;17.20;99.90;;;;;;5023270;28;20504;-78
2023/10/06 08:26:08;;;;;;;14.60;10.57;;;17.30;99.90;;;;;;5033803;28;20472;-79
2023/10/06 08:28:37;;;;;;;11.47;10.57;;;17.30;99.90;;;;;;5032605;28;20475;-78
2023/10/06 08:31:05;;;;;;;12.63;11.43;;;17.40;99.90;;;;;;5032627;28;20468;-79
2023/10/06 08:33:32;;;;;;;11.20;10.03;;;17.40;99.90;;;;;;5041477;28;20479;-87
2023/10/06 08:36:02;;;;;;;11.37;10.20;;;17.40;99.90;;;;;;5039858;28;20567;-87
2023/10/06 08:38:30;;;;;;;10.70;9.60;;;17.50;99.90;;;;;;5038243;28;20550;-77
2023/10/06 08:41:02;;;;;;;14.97;10.17;;;17.60;99.90;;;;;;5034950;28;20547;-78
2023/10/06 08:43:30;;;;;;;17.10;9.20;;;17.60;99.90;;;;;;5034059;28;20473;-79
2023/10/06 08:45:59;;;;;;;12.37;10.10;;;17.60;99.90;;;;;;5033434;28;20552;-78
2023/10/06 08:48:31;;;;;;;13.00;10.10;;;17.60;99.90;;;;;;5035508;28;20472;-88
2023/10/06 08:51:07;;;;;;;14.80;10.50;;;17.70;99.90;;;;;;5034742;28;20472;-78
2023/10/06 08:53:38;;;;;;;10.47;9.47;;;17.70;99.90;;;;;;5034051;28;21045;-78
2023/10/06 08:56:06;;;;;;;12.63;9.00;;;17.80;99.90;;;;;;5032985;28;20879;-78
2023/10/06 08:58:35;;;;;;;15.13;9.67;;;17.80;99.90;;;;;;5033960;28;20471;-78
2023/10/06 09:01:04;;;;;;;9.80;8.90;;;17.90;99.90;;;;;;5033547;28;20469;-79
2023/10/06 09:03:31;;;;;;;16.80;10.77;;;17.90;99.90;;;;;;5033839;28;20468;-80
2023/10/06 09:05:58;;;;;;;9.50;8.70;;;17.90;99.90;;;;;;5033196;28;20483;-77
2023/10/06 09:08:39;;;;;;;10.07;8.60;;;18.00;99.90;;;;;;5033787;28;21017;-87
2023/10/06 09:11:06;;;;;;;9.33;8.40;;;17.90;99.90;;;;;;5033391;28;20460;-88
2023/10/06 09:13:33;;;;;;;8.60;7.73;;;18.00;99.90;;;;;;5033875;28;20483;-87
2023/10/06 09:16:02;;;;;;;15.40;10.37;;;18.00;99.90;;;;;;5033170;28;20476;-87
2023/10/06 09:18:34;;;;;;;13.33;10.20;;;18.10;99.90;;;;;;5034947;28;20555;-79
2023/10/06 09:21:12;;;;;;;9.60;8.70;;;18.10;99.90;;;;;;5032776;28;20526;-79
2023/10/06 09:23:40;;;;;;;10.93;7.47;;;18.20;99.90;;;;;;5033461;28;21308;-79
2023/10/06 09:26:08;;;;;;;10.57;7.47;;;18.20;99.90;;;;;;5032758;28;20499;-79
2023/10/06 09:28:50;;;;;;;8.80;7.40;;;18.20;99.90;;;;;;5033023;28;20505;-79
2023/10/06 09:31:18;;;;;;;7.67;6.87;;;18.20;99.90;;;;;;5033282;28;20534;-79
2023/10/06 09:33:48;;;;;;;10.93;7.03;;;18.20;99.90;;;;;;5033121;28;20518;-79
2023/10/06 09:36:21;;;;;;;9.17;7.30;;;18.10;99.90;;;;;;5032763;28;20484;-78
2023/10/06 09:38:50;;;;;;;8.50;6.10;;;18.20;99.90;;;;;;5033800;28;20464;-87
2023/10/06 09:41:33;;;;;;;8.00;5.60;;;18.20;99.90;;;;;;5034669;28;20464;-86
2023/10/06 09:44:11;;;;;;;6.57;5.90;;;18.30;99.90;;;;;;5033571;28;20472;-78
2023/10/06 09:46:43;;;;;;;9.00;6.83;;;18.30;99.90;;;;;;5033432;28;20822;-78
2023/10/06 09:49:16;;;;;;;11.03;6.30;;;18.30;99.90;;;;;;5034110;28;20464;-78
2023/10/06 09:51:49;;;;;;;7.47;5.30;;;18.30;99.90;;;;;;5035173;28;20817;-79
2023/10/06 09:54:41;;;;;;;7.00;5.43;;;18.30;99.90;;;;;;5030975;28;20468;-78
2023/10/06 09:57:10;;;;;;;7.90;7.20;;;18.30;99.90;;;;;;5024357;28;20555;-79
2023/10/06 09:59:38;;;;;;;9.57;6.40;;;18.30;99.90;;;;;;5032840;28;20468;-78
2023/10/06 10:02:06;;;;;;;5.73;5.20;;;18.40;99.90;;;;;;5032705;28;20555;-78
2023/10/06 10:04:35;;;;;;;7.60;5.50;;;18.40;99.90;;;;;;5032871;28;20488;-78
2023/10/06 10:07:03;;;;;;;7.30;5.27;;;18.40;99.90;;;;;;5032800;28;20495;-78
2023/10/06 10:09:34;;;;;;;5.30;3.83;;;18.50;99.90;;;;;;5032293;28;20460;-78
2023/10/06 10:12:15;;;;;;;7.03;6.33;;;18.50;99.90;;;;;;5032626;28;20464;-78
2023/10/06 10:15:00;;;;;;;14.00;7.83;;;18.70;99.90;;;;;;5033178;28;20472;-80
2023/10/06 10:17:36;;;;;;;7.30;4.37;;;18.70;99.90;;;;;;5032933;28;20507;-80
2023/10/06 10:20:09;;;;;;;6.13;5.10;;;18.60;99.90;;;;;;5035511;28;20541;-88
2023/10/06 10:22:38;;;;;;;5.50;4.53;;;18.70;99.90;;;;;;5037015;28;20998;-80
2023/10/06 10:25:13;;;;;;;6.30;3.73;;;18.70;99.90;;;;;;5036159;28;21029;-80
2023/10/06 10:27:43;;;;;;;5.47;4.23;;;18.70;99.90;;;;;;5036291;28;20464;-79
2023/10/06 10:30:13;;;;;;;4.43;3.80;;;18.70;99.90;;;;;;5036616;28;20479;-79
2023/10/06 10:32:43;;;;;;;7.23;3.80;;;18.60;99.90;;;;;;5036795;28;20842;-88
2023/10/06 10:35:13;;;;;;;5.73;3.70;;;18.70;99.90;;;;;;5037635;28;20480;-88
2023/10/06 10:37:59;;;;;;;6.03;3.43;;;18.70;99.90;;;;;;5038005;28;21027;-88
2023/10/06 10:40:29;;;;;;;6.80;3.70;;;18.70;99.90;;;;;;5039590;28;20472;-88
2023/10/06 10:43:01;;;;;;;9.07;5.10;;;18.80;99.90;;;;;;5038360;28;20499;-79
2023/10/06 10:45:34;;;;;;;4.70;3.90;;;18.70;99.90;;;;;;5037065;28;20506;-79
2023/10/06 10:48:04;;;;;;;6.63;4.27;;;18.80;99.90;;;;;;5037297;28;20782;-88
2023/10/06 10:51:05;;;;;;;6.40;3.83;;;18.80;99.90;;;;;;5038526;28;20463;-80
2023/10/06 10:53:33;;;;;;;6.77;3.10;;;18.80;99.90;;;;;;5031828;28;20468;-88
2023/10/06 10:56:02;;;;;;;4.70;3.23;;;18.90;99.90;;;;;;5036207;28;20514;-79
2023/10/06 10:58:54;;;;;;;5.70;3.80;;;18.90;99.90;;;;;;5035593;28;20953;-79
2023/10/06 11:04:49;;;;;;;10.27;9.10;;;19.00;99.90;;;;;;5036919;28;20467;-87
2023/10/06 11:07:28;;;;;;;8.20;4.33;;;19.00;99.90;;;;;;5035786;28;20498;-87
2023/10/06 11:09:57;;;;;;;3.60;2.87;;;19.00;99.90;;;;;;5037430;28;20471;-88
2023/10/06 11:12:30;;;;;;;4.83;3.20;;;18.90;99.90;;;;;;5037552;28;20490;-87
2023/10/06 11:18:17;;;;;;;4.67;3.47;;;19.00;99.90;;;;;;4990362;28;20470;-88
2023/10/06 11:20:48;;;;;;;6.40;3.90;;;19.10;99.90;;;;;;5037135;28;20814;-79
2023/10/06 11:23:15;;;;;;;6.07;4.03;;;19.20;99.90;;;;;;5039395;28;20467;-80
2023/10/06 11:25:51;;;;;;;3.13;2.80;;;19.30;99.90;;;;;;5035109;28;20468;-80
2023/10/06 11:28:25;;;;;;;3.70;2.67;;;19.30;99.90;;;;;;5036234;28;20490;-87
2023/10/06 11:31:16;;;;;;;5.53;3.50;;;19.30;99.90;;;;;;5027789;28;20475;-78
2023/10/06 11:33:50;;;;;;;5.33;3.67;;;19.30;99.90;;;;;;5027406;28;20823;-78
2023/10/06 11:36:17;;;;;;;9.67;3.90;;;19.30;99.90;;;;;;5035836;28;20584;-78
2023/10/06 11:38:45;;;;;;;4.60;3.67;;;19.40;99.90;;;;;;5040868;28;20576;-78
2023/10/06 11:41:12;;;;;;;4.17;3.03;;;19.40;99.90;;;;;;5038741;28;20531;-87
2023/10/06 11:43:40;;;;;;;2.93;2.63;;;19.40;99.90;;;;;;5037789;28;20482;-86
2023/10/06 11:46:10;;;;;;;4.60;3.27;;;19.40;99.90;;;;;;5036097;28;20480;-88
2023/10/06 11:48:39;;;;;;;3.70;3.27;;;19.40;99.90;;;;;;5038633;28;20491;-88
2023/10/06 11:51:12;;;;;;;3.47;3.17;;;19.40;99.90;;;;;;5041077;28;20468;-88
2023/10/06 11:53:45;;;;;;;5.67;3.13;;;19.40;99.90;;;;;;5034132;28;20474;-88
2023/10/06 11:56:16;;;;;;;6.43;3.43;;;19.50;99.90;;;;;;5044118;28;20476;-79
2023/10/06 11:58:45;;;;;;;4.33;3.80;;;19.50;99.90;;;;;;5035340;28;20500;-79
2023/10/06 12:01:32;;;;;;;5.63;3.70;;;19.50;99.90;;;;;;5034786;28;20488;-79
2023/10/06 12:04:04;;;;;;;5.50;2.87;;;19.50;99.90;;;;;;5035065;28;20472;-78
2023/10/06 12:06:38;;;;;;;6.13;4.00;;;19.60;99.90;;;;;;5036414;28;20997;-86
2023/10/06 12:09:12;;;;;;;6.30;3.30;;;19.60;99.90;;;;;;5038537;28;20966;-87
2023/10/06 12:11:44;;;;;;;3.00;2.70;;;19.50;99.90;;;;;;5029597;28;20472;-88
2023/10/06 12:14:19;;;;;;;4.90;3.00;;;19.50;99.90;;;;;;5044480;28;20467;-86
2023/10/06 12:16:50;;;;;;;4.77;3.40;;;19.50;99.90;;;;;;5032607;28;20476;-87
2023/10/06 12:19:23;;;;;;;6.47;3.07;;;19.60;99.90;;;;;;5039002;28;20488;-88
2023/10/06 12:22:25;;;;;;;4.53;2.80;;;19.60;99.90;;;;;;5038112;28;20873;-88
2023/10/06 12:25:06;;;;;;;6.30;5.57;;;19.50;99.90;;;;;;5027951;28;20497;-89
2023/10/06 12:30:52;;;;;;;4.13;3.70;;;19.60;99.90;;;;;;5040710;28;22232;-89
2023/10/06 12:33:19;;;;;;;5.83;3.30;;;19.60;99.90;;;;;;5031391;28;20484;-80
2023/10/06 12:35:52;;;;;;;6.63;3.00;;;19.60;99.90;;;;;;5035327;28;20963;-81
2023/10/06 12:38:23;;;;;;;6.00;3.37;;;19.60;99.90;;;;;;5032825;28;20468;-78
2023/10/06 12:40:53;;;;;;;4.83;2.70;;;19.50;99.90;;;;;;5038913;28;20456;-78
2023/10/06 12:43:20;;;;;;;5.43;3.23;;;19.50;99.90;;;;;;5036246;28;20499;-78
2023/10/06 12:45:50;;;;;;;3.83;3.00;;;19.50;99.90;;;;;;5042670;28;20490;-89
2023/10/06 12:48:17;;;;;;;4.47;3.30;;;19.50;99.90;;;;;;5046889;28;20495;-78
2023/10/06 12:50:44;;;;;;;5.47;3.73;;;19.60;99.90;;;;;;5038546;28;20547;-78
2023/10/06 12:53:12;;;;;;;8.37;2.93;;;19.60;99.90;;;;;;5037096;28;20812;-78
2023/10/06 12:55:44;;;;;;;4.60;2.37;;;19.70;99.90;;;;;;5028603;28;20551;-78
2023/10/06 12:58:26;;;;;;;6.50;2.80;;;19.70;99.90;;;;;;5015223;28;20483;-79
2023/10/06 13:00:54;;;;;;;4.77;3.03;;;19.70;99.90;;;;;;5032770;28;20824;-79
2023/10/06 13:03:22;;;;;;;7.23;3.10;;;19.70;99.90;;;;;;5033945;28;20522;-80